sensor_id;sensor_type;location;lat;lon;timestamp;P1;durP1;ratioP1;P2;durP2;ratioP2
33190;SDS011;19554;42.652;23.364;2023-04-24T00:01:29;15.43;;;6.78;;
33190;SDS011;19554;42.652;23.364;2023-04-24T00:03:55;8.25;;;6.70;;
33190;SDS011;19554;42.652;23.364;2023-04-24T00:06:24;14.33;;;6.93;;
33190;SDS011;19554;42.652;23.364;2023-04-24T00:08:57;14.38;;;6.90;;
33190;SDS011;19554;42.652;23.364;2023-04-24T00:11:23;10.27;;;7.03;;
33190;SDS011;19554;42.652;23.364;2023-04-24T00:13:49;17.13;;;7.78;;
33190;SDS011;19554;42.652;23.364;2023-04-24T00:16:14;10.40;;;6.22;;
33190;SDS011;19554;42.652;23.364;2023-04-24T00:18:39;8.18;;;6.10;;
33190;SDS011;19554;42.652;23.364;2023-04-24T00:21:06;9.68;;;5.93;;
33190;SDS011;19554;42.652;23.364;2023-04-24T00:23:32;9.75;;;5.95;;
33190;SDS011;19554;42.652;23.364;2023-04-24T00:25:57;8.93;;;6.57;;
33190;SDS011;19554;42.652;23.364;2023-04-24T00:28:22;10.35;;;6.72;;
33190;SDS011;19554;42.652;23.364;2023-04-24T00:30:48;13.43;;;6.53;;
33190;SDS011;19554;42.652;23.364;2023-04-24T00:33:13;11.02;;;6.70;;
33190;SDS011;19554;42.652;23.364;2023-04-24T00:35:39;12.93;;;5.47;;
33190;SDS011;19554;42.652;23.364;2023-04-24T00:38:05;8.23;;;5.53;;
33190;SDS011;19554;42.652;23.364;2023-04-24T00:40:31;10.05;;;6.03;;
33190;SDS011;19554;42.652;23.364;2023-04-24T00:42:56;11.15;;;5.38;;
33190;SDS011;19554;42.652;23.364;2023-04-24T00:45:22;9.38;;;5.70;;
33190;SDS011;19554;42.652;23.364;2023-04-24T00:47:47;9.13;;;5.90;;
33190;SDS011;19554;42.652;23.364;2023-04-24T00:50:14;11.30;;;6.25;;
33190;SDS011;19554;42.652;23.364;2023-04-24T00:52:40;8.85;;;5.82;;
33190;SDS011;19554;42.652;23.364;2023-04-24T00:55:06;10.13;;;6.65;;
33190;SDS011;19554;42.652;23.364;2023-04-24T00:57:32;9.98;;;5.80;;
33190;SDS011;19554;42.652;23.364;2023-04-24T00:59:57;9.85;;;6.10;;
33190;SDS011;19554;42.652;23.364;2023-04-24T01:02:23;9.43;;;6.40;;
33190;SDS011;19554;42.652;23.364;2023-04-24T01:04:50;9.07;;;6.85;;
33190;SDS011;19554;42.652;23.364;2023-04-24T01:07:17;11.57;;;7.40;;
33190;SDS011;19554;42.652;23.364;2023-04-24T01:09:45;13.15;;;7.47;;
33190;SDS011;19554;42.652;23.364;2023-04-24T01:12:14;11.02;;;7.13;;
33190;SDS011;19554;42.652;23.364;2023-04-24T01:14:40;17.48;;;8.45;;
33190;SDS011;19554;42.652;23.364;2023-04-24T01:17:05;9.98;;;6.38;;
33190;SDS011;19554;42.652;23.364;2023-04-24T01:19:32;15.63;;;6.85;;
33190;SDS011;19554;42.652;23.364;2023-04-24T01:21:58;12.30;;;6.95;;
33190;SDS011;19554;42.652;23.364;2023-04-24T01:24:26;11.50;;;6.68;;
33190;SDS011;19554;42.652;23.364;2023-04-24T01:26:53;12.90;;;6.57;;
33190;SDS011;19554;42.652;23.364;2023-04-24T01:29:18;12.82;;;6.82;;
33190;SDS011;19554;42.652;23.364;2023-04-24T01:31:44;9.77;;;7.22;;
33190;SDS011;19554;42.652;23.364;2023-04-24T01:34:10;14.98;;;7.45;;
33190;SDS011;19554;42.652;23.364;2023-04-24T01:36:35;9.50;;;6.80;;
33190;SDS011;19554;42.652;23.364;2023-04-24T01:39:01;10.20;;;6.78;;
33190;SDS011;19554;42.652;23.364;2023-04-24T01:41:28;15.10;;;7.50;;
33190;SDS011;19554;42.652;23.364;2023-04-24T01:43:55;11.55;;;7.20;;
33190;SDS011;19554;42.652;23.364;2023-04-24T01:46:21;14.00;;;7.20;;
33190;SDS011;19554;42.652;23.364;2023-04-24T01:48:47;12.00;;;7.45;;
33190;SDS011;19554;42.652;23.364;2023-04-24T01:51:13;11.68;;;7.22;;
33190;SDS011;19554;42.652;23.364;2023-04-24T01:53:38;12.15;;;6.85;;
33190;SDS011;19554;42.652;23.364;2023-04-24T01:56:04;14.27;;;7.60;;
33190;SDS011;19554;42.652;23.364;2023-04-24T01:58:30;12.38;;;7.63;;
33190;SDS011;19554;42.652;23.364;2023-04-24T02:00:56;10.25;;;7.80;;
33190;SDS011;19554;42.652;23.364;2023-04-24T02:03:23;16.42;;;7.82;;
33190;SDS011;19554;42.652;23.364;2023-04-24T02:05:50;15.38;;;7.22;;
33190;SDS011;19554;42.652;23.364;2023-04-24T02:08:15;13.93;;;7.13;;
33190;SDS011;19554;42.652;23.364;2023-04-24T02:10:41;12.40;;;7.82;;
33190;SDS011;19554;42.652;23.364;2023-04-24T02:13:06;11.88;;;7.85;;
33190;SDS011;19554;42.652;23.364;2023-04-24T02:15:31;10.32;;;7.68;;
33190;SDS011;19554;42.652;23.364;2023-04-24T02:17:57;16.13;;;8.57;;
33190;SDS011;19554;42.652;23.364;2023-04-24T02:20:22;15.57;;;7.30;;
33190;SDS011;19554;42.652;23.364;2023-04-24T02:22:48;10.43;;;8.27;;
33190;SDS011;19554;42.652;23.364;2023-04-24T02:25:13;17.27;;;7.78;;
33190;SDS011;19554;42.652;23.364;2023-04-24T02:27:39;13.07;;;7.32;;
33190;SDS011;19554;42.652;23.364;2023-04-24T02:30:04;12.57;;;7.43;;
33190;SDS011;19554;42.652;23.364;2023-04-24T02:32:30;14.20;;;8.20;;
33190;SDS011;19554;42.652;23.364;2023-04-24T02:34:56;11.45;;;7.65;;
33190;SDS011;19554;42.652;23.364;2023-04-24T02:37:21;11.77;;;7.68;;
33190;SDS011;19554;42.652;23.364;2023-04-24T02:39:47;12.32;;;7.35;;
33190;SDS011;19554;42.652;23.364;2023-04-24T02:42:12;11.68;;;7.18;;
33190;SDS011;19554;42.652;23.364;2023-04-24T02:44:37;17.95;;;7.95;;
33190;SDS011;19554;42.652;23.364;2023-04-24T02:47:03;12.63;;;8.27;;
33190;SDS011;19554;42.652;23.364;2023-04-24T02:49:28;10.80;;;7.15;;
33190;SDS011;19554;42.652;23.364;2023-04-24T02:51:54;11.23;;;8.07;;
33190;SDS011;19554;42.652;23.364;2023-04-24T02:54:19;12.73;;;7.82;;
33190;SDS011;19554;42.652;23.364;2023-04-24T02:56:44;15.45;;;7.68;;
33190;SDS011;19554;42.652;23.364;2023-04-24T02:59:10;14.95;;;8.65;;
33190;SDS011;19554;42.652;23.364;2023-04-24T03:01:35;11.80;;;8.65;;
33190;SDS011;19554;42.652;23.364;2023-04-24T03:04:01;16.92;;;8.90;;
33190;SDS011;19554;42.652;23.364;2023-04-24T03:06:26;21.77;;;9.70;;
33190;SDS011;19554;42.652;23.364;2023-04-24T03:08:52;21.77;;;9.88;;
33190;SDS011;19554;42.652;23.364;2023-04-24T03:11:18;21.40;;;10.10;;
33190;SDS011;19554;42.652;23.364;2023-04-24T03:13:43;18.83;;;10.18;;
33190;SDS011;19554;42.652;23.364;2023-04-24T03:16:09;19.52;;;10.07;;
33190;SDS011;19554;42.652;23.364;2023-04-24T03:18:34;19.52;;;10.20;;
33190;SDS011;19554;42.652;23.364;2023-04-24T03:21:00;17.92;;;10.10;;
33190;SDS011;19554;42.652;23.364;2023-04-24T03:23:25;18.52;;;10.30;;
33190;SDS011;19554;42.652;23.364;2023-04-24T03:25:51;17.33;;;9.45;;
33190;SDS011;19554;42.652;23.364;2023-04-24T03:28:16;16.15;;;9.38;;
33190;SDS011;19554;42.652;23.364;2023-04-24T03:30:41;15.55;;;9.13;;
33190;SDS011;19554;42.652;23.364;2023-04-24T03:33:07;20.75;;;9.68;;
33190;SDS011;19554;42.652;23.364;2023-04-24T03:35:32;25.70;;;11.93;;
33190;SDS011;19554;42.652;23.364;2023-04-24T03:37:58;18.90;;;11.68;;
33190;SDS011;19554;42.652;23.364;2023-04-24T03:40:23;29.08;;;12.73;;
33190;SDS011;19554;42.652;23.364;2023-04-24T03:42:48;22.05;;;11.90;;
33190;SDS011;19554;42.652;23.364;2023-04-24T03:45:14;22.15;;;12.43;;
33190;SDS011;19554;42.652;23.364;2023-04-24T03:47:39;19.33;;;11.52;;
33190;SDS011;19554;42.652;23.364;2023-04-24T03:50:05;20.63;;;11.93;;
33190;SDS011;19554;42.652;23.364;2023-04-24T03:52:30;27.40;;;11.88;;
33190;SDS011;19554;42.652;23.364;2023-04-24T03:54:56;19.25;;;11.65;;
33190;SDS011;19554;42.652;23.364;2023-04-24T03:57:21;17.88;;;10.68;;
33190;SDS011;19554;42.652;23.364;2023-04-24T03:59:47;32.92;;;12.65;;
33190;SDS011;19554;42.652;23.364;2023-04-24T04:02:12;21.95;;;11.18;;
33190;SDS011;19554;42.652;23.364;2023-04-24T04:04:37;15.18;;;10.55;;
33190;SDS011;19554;42.652;23.364;2023-04-24T04:07:03;32.65;;;12.73;;
33190;SDS011;19554;42.652;23.364;2023-04-24T04:09:28;30.80;;;11.77;;
33190;SDS011;19554;42.652;23.364;2023-04-24T04:11:54;23.98;;;12.10;;
33190;SDS011;19554;42.652;23.364;2023-04-24T04:14:20;21.77;;;10.98;;
33190;SDS011;19554;42.652;23.364;2023-04-24T04:16:46;22.73;;;11.25;;
33190;SDS011;19554;42.652;23.364;2023-04-24T04:19:11;25.10;;;11.57;;
33190;SDS011;19554;42.652;23.364;2023-04-24T04:21:37;20.02;;;11.57;;
33190;SDS011;19554;42.652;23.364;2023-04-24T04:24:02;21.63;;;11.38;;
33190;SDS011;19554;42.652;23.364;2023-04-24T04:26:27;17.45;;;10.23;;
33190;SDS011;19554;42.652;23.364;2023-04-24T04:28:53;21.92;;;11.13;;
33190;SDS011;19554;42.652;23.364;2023-04-24T04:31:19;28.67;;;11.80;;
33190;SDS011;19554;42.652;23.364;2023-04-24T04:33:45;27.17;;;11.95;;
33190;SDS011;19554;42.652;23.364;2023-04-24T04:36:11;17.13;;;10.88;;
33190;SDS011;19554;42.652;23.364;2023-04-24T04:38:37;22.10;;;11.23;;
33190;SDS011;19554;42.652;23.364;2023-04-24T04:41:02;30.40;;;11.60;;
33190;SDS011;19554;42.652;23.364;2023-04-24T04:43:28;23.08;;;9.93;;
33190;SDS011;19554;42.652;23.364;2023-04-24T04:45:53;19.35;;;9.57;;
33190;SDS011;19554;42.652;23.364;2023-04-24T04:48:20;19.67;;;10.23;;
33190;SDS011;19554;42.652;23.364;2023-04-24T04:50:46;29.15;;;15.10;;
33190;SDS011;19554;42.652;23.364;2023-04-24T04:53:11;22.00;;;11.43;;
33190;SDS011;19554;42.652;23.364;2023-04-24T04:55:37;19.45;;;12.02;;
33190;SDS011;19554;42.652;23.364;2023-04-24T04:58:02;14.57;;;8.48;;
33190;SDS011;19554;42.652;23.364;2023-04-24T05:00:28;15.63;;;8.38;;
33190;SDS011;19554;42.652;23.364;2023-04-24T05:02:58;26.08;;;10.63;;
33190;SDS011;19554;42.652;23.364;2023-04-24T05:05:24;18.95;;;9.77;;
33190;SDS011;19554;42.652;23.364;2023-04-24T05:07:49;17.55;;;9.07;;
33190;SDS011;19554;42.652;23.364;2023-04-24T05:10:14;15.20;;;9.35;;
33190;SDS011;19554;42.652;23.364;2023-04-24T05:12:40;13.63;;;8.68;;
33190;SDS011;19554;42.652;23.364;2023-04-24T05:15:05;16.77;;;8.43;;
33190;SDS011;19554;42.652;23.364;2023-04-24T05:17:31;28.30;;;9.40;;
33190;SDS011;19554;42.652;23.364;2023-04-24T05:19:58;18.20;;;6.60;;
33190;SDS011;19554;42.652;23.364;2023-04-24T05:22:23;13.43;;;7.03;;
33190;SDS011;19554;42.652;23.364;2023-04-24T05:24:49;19.73;;;7.75;;
33190;SDS011;19554;42.652;23.364;2023-04-24T05:27:14;18.80;;;8.05;;
33190;SDS011;19554;42.652;23.364;2023-04-24T05:29:40;12.07;;;7.22;;
33190;SDS011;19554;42.652;23.364;2023-04-24T05:32:05;13.95;;;7.30;;
33190;SDS011;19554;42.652;23.364;2023-04-24T05:34:31;12.55;;;6.95;;
33190;SDS011;19554;42.652;23.364;2023-04-24T05:36:57;21.40;;;7.95;;
33190;SDS011;19554;42.652;23.364;2023-04-24T05:39:22;18.02;;;7.50;;
33190;SDS011;19554;42.652;23.364;2023-04-24T05:41:49;14.40;;;7.18;;
33190;SDS011;19554;42.652;23.364;2023-04-24T05:44:15;17.75;;;9.07;;
33190;SDS011;19554;42.652;23.364;2023-04-24T05:46:40;12.60;;;8.38;;
33190;SDS011;19554;42.652;23.364;2023-04-24T05:49:06;18.27;;;8.02;;
33190;SDS011;19554;42.652;23.364;2023-04-24T05:51:31;12.32;;;6.97;;
33190;SDS011;19554;42.652;23.364;2023-04-24T05:53:57;13.00;;;7.80;;
33190;SDS011;19554;42.652;23.364;2023-04-24T05:56:22;13.80;;;7.43;;
33190;SDS011;19554;42.652;23.364;2023-04-24T05:58:48;12.50;;;8.02;;
33190;SDS011;19554;42.652;23.364;2023-04-24T06:01:13;14.23;;;7.43;;
33190;SDS011;19554;42.652;23.364;2023-04-24T06:03:43;18.63;;;7.85;;
33190;SDS011;19554;42.652;23.364;2023-04-24T06:06:08;16.70;;;7.93;;
33190;SDS011;19554;42.652;23.364;2023-04-24T06:08:34;15.65;;;8.93;;
33190;SDS011;19554;42.652;23.364;2023-04-24T06:11:00;17.65;;;8.02;;
33190;SDS011;19554;42.652;23.364;2023-04-24T06:13:25;15.65;;;9.10;;
33190;SDS011;19554;42.652;23.364;2023-04-24T06:15:51;13.35;;;7.78;;
33190;SDS011;19554;42.652;23.364;2023-04-24T06:18:16;15.77;;;7.82;;
33190;SDS011;19554;42.652;23.364;2023-04-24T06:20:42;13.25;;;8.57;;
33190;SDS011;19554;42.652;23.364;2023-04-24T06:23:07;16.05;;;8.55;;
33190;SDS011;19554;42.652;23.364;2023-04-24T06:25:32;18.45;;;9.13;;
33190;SDS011;19554;42.652;23.364;2023-04-24T06:27:58;13.13;;;8.20;;
33190;SDS011;19554;42.652;23.364;2023-04-24T06:30:23;13.68;;;8.57;;
33190;SDS011;19554;42.652;23.364;2023-04-24T06:32:49;12.52;;;8.15;;
33190;SDS011;19554;42.652;23.364;2023-04-24T06:35:14;12.85;;;8.80;;
33190;SDS011;19554;42.652;23.364;2023-04-24T06:37:40;17.30;;;9.23;;
33190;SDS011;19554;42.652;23.364;2023-04-24T06:40:06;14.88;;;8.63;;
33190;SDS011;19554;42.652;23.364;2023-04-24T06:42:32;15.63;;;9.10;;
33190;SDS011;19554;42.652;23.364;2023-04-24T06:44:57;16.25;;;8.63;;
33190;SDS011;19554;42.652;23.364;2023-04-24T06:47:23;17.33;;;8.48;;
33190;SDS011;19554;42.652;23.364;2023-04-24T06:49:49;16.83;;;8.15;;
33190;SDS011;19554;42.652;23.364;2023-04-24T06:52:16;22.50;;;9.50;;
33190;SDS011;19554;42.652;23.364;2023-04-24T06:54:41;18.10;;;9.52;;
33190;SDS011;19554;42.652;23.364;2023-04-24T06:57:07;14.98;;;8.35;;
33190;SDS011;19554;42.652;23.364;2023-04-24T06:59:33;17.45;;;11.15;;
33190;SDS011;19554;42.652;23.364;2023-04-24T07:01:58;17.73;;;9.57;;
33190;SDS011;19554;42.652;23.364;2023-04-24T07:04:24;16.88;;;10.13;;
33190;SDS011;19554;42.652;23.364;2023-04-24T07:06:50;14.43;;;8.52;;
33190;SDS011;19554;42.652;23.364;2023-04-24T07:09:16;12.13;;;9.02;;
33190;SDS011;19554;42.652;23.364;2023-04-24T07:11:43;16.55;;;9.13;;
33190;SDS011;19554;42.652;23.364;2023-04-24T07:14:09;16.63;;;9.40;;
33190;SDS011;19554;42.652;23.364;2023-04-24T07:16:35;14.52;;;9.43;;
33190;SDS011;19554;42.652;23.364;2023-04-24T07:19:00;14.65;;;9.80;;
33190;SDS011;19554;42.652;23.364;2023-04-24T07:21:26;17.73;;;9.38;;
33190;SDS011;19554;42.652;23.364;2023-04-24T07:23:52;20.95;;;9.43;;
33190;SDS011;19554;42.652;23.364;2023-04-24T07:26:17;16.42;;;9.02;;
33190;SDS011;19554;42.652;23.364;2023-04-24T07:28:43;13.32;;;8.57;;
33190;SDS011;19554;42.652;23.364;2023-04-24T07:31:08;13.80;;;7.82;;
33190;SDS011;19554;42.652;23.364;2023-04-24T07:33:35;15.10;;;7.63;;
33190;SDS011;19554;42.652;23.364;2023-04-24T07:36:01;17.35;;;8.88;;
33190;SDS011;19554;42.652;23.364;2023-04-24T07:38:26;12.40;;;7.40;;
33190;SDS011;19554;42.652;23.364;2023-04-24T07:40:54;15.73;;;10.23;;
33190;SDS011;19554;42.652;23.364;2023-04-24T07:43:20;14.27;;;9.23;;
33190;SDS011;19554;42.652;23.364;2023-04-24T07:45:46;14.07;;;8.98;;
33190;SDS011;19554;42.652;23.364;2023-04-24T07:48:11;13.02;;;8.95;;
33190;SDS011;19554;42.652;23.364;2023-04-24T07:50:39;20.92;;;9.90;;
33190;SDS011;19554;42.652;23.364;2023-04-24T07:53:05;15.45;;;9.20;;
33190;SDS011;19554;42.652;23.364;2023-04-24T07:55:30;14.02;;;9.32;;
33190;SDS011;19554;42.652;23.364;2023-04-24T07:57:56;14.98;;;8.48;;
33190;SDS011;19554;42.652;23.364;2023-04-24T08:00:21;14.23;;;8.90;;
33190;SDS011;19554;42.652;23.364;2023-04-24T08:02:47;13.77;;;8.93;;
33190;SDS011;19554;42.652;23.364;2023-04-24T08:05:12;16.08;;;7.55;;
33190;SDS011;19554;42.652;23.364;2023-04-24T08:07:38;10.23;;;7.32;;
33190;SDS011;19554;42.652;23.364;2023-04-24T08:10:03;13.27;;;6.78;;
33190;SDS011;19554;42.652;23.364;2023-04-24T08:12:29;9.85;;;5.90;;
33190;SDS011;19554;42.652;23.364;2023-04-24T08:14:55;12.70;;;7.05;;
33190;SDS011;19554;42.652;23.364;2023-04-24T08:17:20;18.50;;;7.32;;
33190;SDS011;19554;42.652;23.364;2023-04-24T08:19:46;14.75;;;8.60;;
33190;SDS011;19554;42.652;23.364;2023-04-24T08:22:16;15.87;;;7.80;;
33190;SDS011;19554;42.652;23.364;2023-04-24T08:24:41;12.02;;;7.38;;
33190;SDS011;19554;42.652;23.364;2023-04-24T08:27:07;20.42;;;7.90;;
33190;SDS011;19554;42.652;23.364;2023-04-24T08:29:33;15.10;;;7.95;;
33190;SDS011;19554;42.652;23.364;2023-04-24T08:31:58;13.38;;;7.93;;
33190;SDS011;19554;42.652;23.364;2023-04-24T08:34:24;18.50;;;7.93;;
33190;SDS011;19554;42.652;23.364;2023-04-24T08:36:49;15.48;;;7.55;;
33190;SDS011;19554;42.652;23.364;2023-04-24T08:39:15;11.93;;;7.13;;
33190;SDS011;19554;42.652;23.364;2023-04-24T08:41:42;11.85;;;6.18;;
33190;SDS011;19554;42.652;23.364;2023-04-24T08:44:09;11.27;;;7.22;;
33190;SDS011;19554;42.652;23.364;2023-04-24T08:46:35;12.07;;;7.13;;
33190;SDS011;19554;42.652;23.364;2023-04-24T08:49:01;13.35;;;6.55;;
33190;SDS011;19554;42.652;23.364;2023-04-24T08:51:27;11.50;;;7.25;;
33190;SDS011;19554;42.652;23.364;2023-04-24T08:53:55;13.27;;;6.82;;
33190;SDS011;19554;42.652;23.364;2023-04-24T08:56:21;10.13;;;6.00;;
33190;SDS011;19554;42.652;23.364;2023-04-24T08:58:48;11.85;;;6.63;;
33190;SDS011;19554;42.652;23.364;2023-04-24T09:01:15;12.75;;;7.07;;
33190;SDS011;19554;42.652;23.364;2023-04-24T09:03:42;10.20;;;5.93;;
33190;SDS011;19554;42.652;23.364;2023-04-24T09:06:08;11.07;;;6.38;;
33190;SDS011;19554;42.652;23.364;2023-04-24T09:08:36;12.63;;;5.90;;
33190;SDS011;19554;42.652;23.364;2023-04-24T09:11:03;12.13;;;6.28;;
33190;SDS011;19554;42.652;23.364;2023-04-24T09:13:30;14.57;;;5.95;;
33190;SDS011;19554;42.652;23.364;2023-04-24T09:15:55;9.85;;;5.88;;
33190;SDS011;19554;42.652;23.364;2023-04-24T09:18:22;12.10;;;5.85;;
33190;SDS011;19554;42.652;23.364;2023-04-24T09:20:57;7.00;;;5.85;;
33190;SDS011;19554;42.652;23.364;2023-04-24T09:23:25;10.45;;;6.03;;
33190;SDS011;19554;42.652;23.364;2023-04-24T09:25:54;12.32;;;6.72;;
33190;SDS011;19554;42.652;23.364;2023-04-24T09:28:22;10.52;;;5.97;;
33190;SDS011;19554;42.652;23.364;2023-04-24T09:33:39;12.57;;;5.88;;
33190;SDS011;19554;42.652;23.364;2023-04-24T09:36:05;11.63;;;6.20;;
33190;SDS011;19554;42.652;23.364;2023-04-24T09:38:34;12.02;;;5.82;;
33190;SDS011;19554;42.652;23.364;2023-04-24T09:41:02;6.80;;;5.50;;
33190;SDS011;19554;42.652;23.364;2023-04-24T09:43:29;14.82;;;6.13;;
33190;SDS011;19554;42.652;23.364;2023-04-24T09:45:56;10.05;;;5.55;;
33190;SDS011;19554;42.652;23.364;2023-04-24T09:48:31;9.35;;;5.55;;
33190;SDS011;19554;42.652;23.364;2023-04-24T09:51:02;9.40;;;5.70;;
33190;SDS011;19554;42.652;23.364;2023-04-24T09:53:28;13.27;;;5.72;;
33190;SDS011;19554;42.652;23.364;2023-04-24T09:55:55;9.48;;;5.25;;
33190;SDS011;19554;42.652;23.364;2023-04-24T09:58:26;8.23;;;5.13;;
33190;SDS011;19554;42.652;23.364;2023-04-24T10:00:54;10.45;;;6.10;;
33190;SDS011;19554;42.652;23.364;2023-04-24T10:03:20;9.35;;;5.35;;
33190;SDS011;19554;42.652;23.364;2023-04-24T10:05:46;10.65;;;6.40;;
33190;SDS011;19554;42.652;23.364;2023-04-24T10:08:12;8.85;;;5.60;;
33190;SDS011;19554;42.652;23.364;2023-04-24T10:10:41;10.18;;;5.70;;
33190;SDS011;19554;42.652;23.364;2023-04-24T10:13:11;9.30;;;5.78;;
33190;SDS011;19554;42.652;23.364;2023-04-24T10:15:38;19.73;;;6.57;;
33190;SDS011;19554;42.652;23.364;2023-04-24T10:18:05;11.40;;;5.00;;
33190;SDS011;19554;42.652;23.364;2023-04-24T10:20:32;10.88;;;5.88;;
33190;SDS011;19554;42.652;23.364;2023-04-24T10:22:58;9.40;;;5.70;;
33190;SDS011;19554;42.652;23.364;2023-04-24T10:25:26;9.93;;;5.32;;
33190;SDS011;19554;42.652;23.364;2023-04-24T10:27:53;13.32;;;5.70;;
33190;SDS011;19554;42.652;23.364;2023-04-24T10:30:22;8.52;;;5.40;;
33190;SDS011;19554;42.652;23.364;2023-04-24T10:32:48;8.73;;;5.43;;
33190;SDS011;19554;42.652;23.364;2023-04-24T10:35:13;8.82;;;5.55;;
33190;SDS011;19554;42.652;23.364;2023-04-24T10:37:42;8.30;;;4.80;;
33190;SDS011;19554;42.652;23.364;2023-04-24T10:40:10;10.52;;;5.10;;
33190;SDS011;19554;42.652;23.364;2023-04-24T10:42:39;11.70;;;5.40;;
33190;SDS011;19554;42.652;23.364;2023-04-24T10:45:15;14.15;;;5.10;;
33190;SDS011;19554;42.652;23.364;2023-04-24T10:48:07;9.65;;;5.13;;
33190;SDS011;19554;42.652;23.364;2023-04-24T10:50:42;6.80;;;4.90;;
33190;SDS011;19554;42.652;23.364;2023-04-24T10:53:12;10.15;;;5.10;;
33190;SDS011;19554;42.652;23.364;2023-04-24T10:58:07;6.50;;;4.68;;
33190;SDS011;19554;42.652;23.364;2023-04-24T11:00:32;5.03;;;4.40;;
33190;SDS011;19554;42.652;23.364;2023-04-24T11:03:04;8.20;;;4.72;;
33190;SDS011;19554;42.652;23.364;2023-04-24T11:05:49;9.32;;;4.72;;
33190;SDS011;19554;42.652;23.364;2023-04-24T11:08:24;6.65;;;4.40;;
33190;SDS011;19554;42.652;23.364;2023-04-24T11:19:00;6.00;;;4.22;;
33190;SDS011;19554;42.652;23.364;2023-04-24T11:22:13;11.20;;;5.07;;
33190;SDS011;19554;42.652;23.364;2023-04-24T11:26:51;11.43;;;5.05;;
33190;SDS011;19554;42.652;23.364;2023-04-24T11:29:19;5.93;;;4.65;;
33190;SDS011;19554;42.652;23.364;2023-04-24T11:31:46;5.97;;;4.50;;
33190;SDS011;19554;42.652;23.364;2023-04-24T11:34:15;8.65;;;4.35;;
33190;SDS011;19554;42.652;23.364;2023-04-24T11:36:44;8.20;;;5.05;;
33190;SDS011;19554;42.652;23.364;2023-04-24T11:39:11;14.73;;;5.70;;
33190;SDS011;19554;42.652;23.364;2023-04-24T11:41:37;13.20;;;4.90;;
33190;SDS011;19554;42.652;23.364;2023-04-24T11:44:03;8.20;;;3.55;;
33190;SDS011;19554;42.652;23.364;2023-04-24T11:46:31;11.35;;;4.57;;
33190;SDS011;19554;42.652;23.364;2023-04-24T11:48:57;8.13;;;5.05;;
33190;SDS011;19554;42.652;23.364;2023-04-24T11:51:24;10.27;;;4.88;;
33190;SDS011;19554;42.652;23.364;2023-04-24T11:53:51;10.13;;;4.97;;
33190;SDS011;19554;42.652;23.364;2023-04-24T11:56:17;5.05;;;4.13;;
33190;SDS011;19554;42.652;23.364;2023-04-24T11:58:44;7.28;;;4.70;;
33190;SDS011;19554;42.652;23.364;2023-04-24T12:01:10;7.72;;;4.68;;
33190;SDS011;19554;42.652;23.364;2023-04-24T12:03:36;6.47;;;4.53;;
33190;SDS011;19554;42.652;23.364;2023-04-24T12:06:05;7.57;;;4.28;;
33190;SDS011;19554;42.652;23.364;2023-04-24T12:08:34;6.43;;;5.05;;
33190;SDS011;19554;42.652;23.364;2023-04-24T12:11:00;5.72;;;4.07;;
33190;SDS011;19554;42.652;23.364;2023-04-24T12:13:27;4.53;;;4.10;;
33190;SDS011;19554;42.652;23.364;2023-04-24T12:15:53;6.57;;;4.13;;
33190;SDS011;19554;42.652;23.364;2023-04-24T12:18:21;7.40;;;4.00;;
33190;SDS011;19554;42.652;23.364;2023-04-24T12:20:47;7.25;;;4.38;;
33190;SDS011;19554;42.652;23.364;2023-04-24T12:23:13;6.28;;;4.70;;
33190;SDS011;19554;42.652;23.364;2023-04-24T12:25:38;7.00;;;4.35;;
33190;SDS011;19554;42.652;23.364;2023-04-24T12:30:30;4.88;;;4.05;;
33190;SDS011;19554;42.652;23.364;2023-04-24T12:32:58;4.32;;;3.78;;
33190;SDS011;19554;42.652;23.364;2023-04-24T12:35:26;8.23;;;3.72;;
33190;SDS011;19554;42.652;23.364;2023-04-24T12:37:52;9.07;;;3.63;;
33190;SDS011;19554;42.652;23.364;2023-04-24T12:40:19;4.85;;;4.22;;
33190;SDS011;19554;42.652;23.364;2023-04-24T12:42:50;5.57;;;4.13;;
33190;SDS011;19554;42.652;23.364;2023-04-24T12:45:16;4.57;;;4.10;;
33190;SDS011;19554;42.652;23.364;2023-04-24T12:47:44;6.70;;;4.50;;
33190;SDS011;19554;42.652;23.364;2023-04-24T12:50:11;4.68;;;4.18;;
33190;SDS011;19554;42.652;23.364;2023-04-24T12:52:37;8.40;;;5.40;;
33190;SDS011;19554;42.652;23.364;2023-04-24T12:55:04;5.53;;;4.45;;
33190;SDS011;19554;42.652;23.364;2023-04-24T12:57:32;5.80;;;4.60;;
33190;SDS011;19554;42.652;23.364;2023-04-24T12:59:59;8.75;;;4.63;;
33190;SDS011;19554;42.652;23.364;2023-04-24T13:02:26;8.43;;;4.80;;
33190;SDS011;19554;42.652;23.364;2023-04-24T13:04:54;6.18;;;3.92;;
33190;SDS011;19554;42.652;23.364;2023-04-24T13:07:20;6.15;;;4.45;;
33190;SDS011;19554;42.652;23.364;2023-04-24T13:09:45;5.57;;;4.45;;
33190;SDS011;19554;42.652;23.364;2023-04-24T13:12:12;8.73;;;4.95;;
33190;SDS011;19554;42.652;23.364;2023-04-24T13:14:38;8.35;;;4.63;;
33190;SDS011;19554;42.652;23.364;2023-04-24T13:17:03;7.18;;;5.43;;
33190;SDS011;19554;42.652;23.364;2023-04-24T13:19:29;8.45;;;5.55;;
33190;SDS011;19554;42.652;23.364;2023-04-24T13:21:55;9.30;;;4.55;;
33190;SDS011;19554;42.652;23.364;2023-04-24T13:24:25;10.50;;;4.80;;
33190;SDS011;19554;42.652;23.364;2023-04-24T13:26:51;6.40;;;5.07;;
33190;SDS011;19554;42.652;23.364;2023-04-24T13:29:17;8.30;;;5.05;;
33190;SDS011;19554;42.652;23.364;2023-04-24T13:31:42;7.95;;;5.25;;
33190;SDS011;19554;42.652;23.364;2023-04-24T13:34:08;5.70;;;4.95;;
33190;SDS011;19554;42.652;23.364;2023-04-24T13:36:33;11.93;;;5.18;;
33190;SDS011;19554;42.652;23.364;2023-04-24T13:38:59;7.18;;;4.85;;
33190;SDS011;19554;42.652;23.364;2023-04-24T13:41:24;6.95;;;4.60;;
33190;SDS011;19554;42.652;23.364;2023-04-24T13:43:50;6.50;;;5.55;;
33190;SDS011;19554;42.652;23.364;2023-04-24T13:46:15;6.97;;;5.20;;
33190;SDS011;19554;42.652;23.364;2023-04-24T13:48:41;5.22;;;4.55;;
33190;SDS011;19554;42.652;23.364;2023-04-24T13:51:06;6.10;;;5.22;;
33190;SDS011;19554;42.652;23.364;2023-04-24T13:53:32;7.32;;;5.03;;
33190;SDS011;19554;42.652;23.364;2023-04-24T13:56:00;12.32;;;5.25;;
33190;SDS011;19554;42.652;23.364;2023-04-24T13:58:27;5.82;;;5.10;;
33190;SDS011;19554;42.652;23.364;2023-04-24T14:00:52;7.00;;;5.10;;
33190;SDS011;19554;42.652;23.364;2023-04-24T14:03:18;6.82;;;4.35;;
33190;SDS011;19554;42.652;23.364;2023-04-24T14:05:43;7.28;;;4.95;;
33190;SDS011;19554;42.652;23.364;2023-04-24T14:08:08;6.28;;;4.88;;
33190;SDS011;19554;42.652;23.364;2023-04-24T14:10:34;9.50;;;5.15;;
33190;SDS011;19554;42.652;23.364;2023-04-24T14:12:59;6.90;;;5.00;;
33190;SDS011;19554;42.652;23.364;2023-04-24T14:15:25;5.57;;;4.80;;
33190;SDS011;19554;42.652;23.364;2023-04-24T14:17:50;6.53;;;4.95;;
33190;SDS011;19554;42.652;23.364;2023-04-24T14:20:15;9.45;;;5.03;;
33190;SDS011;19554;42.652;23.364;2023-04-24T14:22:41;9.95;;;5.00;;
33190;SDS011;19554;42.652;23.364;2023-04-24T14:25:06;7.35;;;5.28;;
33190;SDS011;19554;42.652;23.364;2023-04-24T14:27:32;6.00;;;3.70;;
33190;SDS011;19554;42.652;23.364;2023-04-24T14:29:59;4.20;;;3.80;;
33190;SDS011;19554;42.652;23.364;2023-04-24T14:32:25;4.50;;;3.67;;
33190;SDS011;19554;42.652;23.364;2023-04-24T14:34:50;5.22;;;3.42;;
33190;SDS011;19554;42.652;23.364;2023-04-24T14:37:16;6.57;;;3.83;;